Time;durP1;ratioP1;P1;durP2;ratioP2;P2;SDS_P1;SDS_P2;PMS_P1;PMS_P2;Temp;Humidity;BMP_temperature;BMP_pressure;BME280_temperature;BME280_humidity;BME280_pressure;Samples;Min_cycle;Max_cycle;Signal;HPM_P1;HPM_P2
2022/07/10 00:01:04;;;;;;;3.40;0.90;;;14.90;99.90;;;;;;5010728;28;20187;-76
2022/07/10 00:03:49;;;;;;;6.00;1.00;;;14.80;99.90;;;;;;5013142;28;20195;-77
2022/07/10 00:06:34;;;;;;;4.50;1.07;;;14.80;99.90;;;;;;5009742;28;20312;-77
2022/07/10 00:09:18;;;;;;;5.63;1.13;;;14.80;99.90;;;;;;5011482;28;20787;-77
2022/07/10 00:12:02;;;;;;;5.83;1.10;;;14.80;99.90;;;;;;5013351;28;20683;-77
2022/07/10 00:14:46;;;;;;;3.57;0.90;;;14.80;99.90;;;;;;5011301;28;20296;-77
2022/07/10 00:17:31;;;;;;;4.00;0.97;;;14.80;99.90;;;;;;5009190;28;20207;-77
2022/07/10 00:20:16;;;;;;;3.50;1.17;;;14.80;99.90;;;;;;5013289;28;20190;-77
2022/07/10 00:23:01;;;;;;;5.40;1.30;;;14.80;99.90;;;;;;5010249;28;20215;-77
2022/07/10 00:25:45;;;;;;;6.80;1.20;;;14.80;99.90;;;;;;5013253;28;20255;-76
2022/07/10 00:28:30;;;;;;;4.77;1.30;;;14.80;99.90;;;;;;5012310;28;20188;-79
2022/07/10 00:31:14;;;;;;;7.70;1.10;;;14.80;99.90;;;;;;5013350;28;20195;-76
2022/07/10 00:33:58;;;;;;;4.40;1.20;;;14.80;99.90;;;;;;5010285;28;20199;-77
2022/07/10 00:36:43;;;;;;;4.57;0.90;;;14.80;99.90;;;;;;5014730;28;20191;-77
2022/07/10 00:39:27;;;;;;;3.47;1.00;;;14.80;99.90;;;;;;5012974;28;20245;-77
2022/07/10 00:42:14;;;;;;;4.60;0.90;;;14.80;99.90;;;;;;5011044;28;20321;-77
2022/07/10 00:44:58;;;;;;;2.90;0.90;;;14.80;99.90;;;;;;5013671;28;20230;-77
2022/07/10 00:47:42;;;;;;;6.60;1.17;;;14.80;99.90;;;;;;5010404;28;20206;-78
2022/07/10 00:50:26;;;;;;;8.93;0.93;;;14.80;99.90;;;;;;5013066;28;20226;-76
2022/07/10 00:53:12;;;;;;;8.73;1.33;;;14.70;99.90;;;;;;5013595;28;20188;-76
2022/07/10 00:55:57;;;;;;;6.80;1.00;;;14.70;99.90;;;;;;5027369;28;20703;-77
2022/07/10 00:58:41;;;;;;;9.87;1.20;;;14.80;99.90;;;;;;5011224;28;20194;-77
2022/07/10 01:01:26;;;;;;;4.30;1.00;;;14.70;99.90;;;;;;5013099;28;20245;-76
2022/07/10 01:04:10;;;;;;;6.20;1.20;;;14.70;99.90;;;;;;5010444;28;20194;-77
2022/07/10 01:06:54;;;;;;;4.80;0.93;;;14.70;99.90;;;;;;5012030;28;20207;-77
2022/07/10 01:09:38;;;;;;;4.07;1.13;;;14.70;99.90;;;;;;5008040;28;20283;-77
2022/07/10 01:12:22;;;;;;;5.30;1.00;;;14.70;99.90;;;;;;5012018;28;20190;-78
2022/07/10 01:15:07;;;;;;;7.60;1.23;;;14.70;99.90;;;;;;5010593;28;20207;-78
2022/07/10 01:17:53;;;;;;;3.43;1.10;;;14.70;99.90;;;;;;5007739;28;20211;-77
2022/07/10 01:20:37;;;;;;;3.93;1.03;;;14.70;99.90;;;;;;5013506;28;20192;-78
2022/07/10 01:23:22;;;;;;;5.23;1.20;;;14.60;99.90;;;;;;5011404;28;20198;-77
2022/07/10 01:26:06;;;;;;;6.47;1.00;;;14.70;99.90;;;;;;5014351;28;20231;-77
2022/07/10 01:28:52;;;;;;;5.43;1.23;;;14.70;99.90;;;;;;5010906;28;20223;-76
2022/07/10 01:31:36;;;;;;;8.57;1.10;;;14.70;99.90;;;;;;5008601;28;20198;-78
2022/07/10 01:34:20;;;;;;;2.80;0.73;;;14.60;99.90;;;;;;5013011;28;20182;-77
2022/07/10 01:37:04;;;;;;;5.23;1.10;;;14.60;99.90;;;;;;5010676;28;20191;-78
2022/07/10 01:39:48;;;;;;;6.57;1.30;;;14.60;99.90;;;;;;5026872;28;20777;-77
2022/07/10 01:42:33;;;;;;;8.93;1.40;;;14.60;99.90;;;;;;5007569;28;20283;-77
2022/07/10 01:45:20;;;;;;;4.73;0.93;;;14.60;99.90;;;;;;5011917;28;20230;-77
2022/07/10 01:48:04;;;;;;;3.43;0.83;;;14.60;99.90;;;;;;5011741;28;20261;-79
2022/07/10 01:50:49;;;;;;;7.47;1.20;;;14.70;99.90;;;;;;5005673;28;20187;-78
2022/07/10 01:53:33;;;;;;;6.30;0.93;;;14.60;99.90;;;;;;5008998;28;20765;-75
2022/07/10 01:56:18;;;;;;;5.17;0.90;;;14.60;99.90;;;;;;5008262;28;20234;-79
2022/07/10 01:59:03;;;;;;;5.10;1.07;;;14.60;99.90;;;;;;5011388;28;20250;-78
2022/07/10 02:01:47;;;;;;;5.37;0.90;;;14.60;99.90;;;;;;5010709;28;20195;-77
2022/07/10 02:04:40;;;;;;;4.67;0.90;;;14.60;99.90;;;;;;5005690;28;20216;-76
2022/07/10 02:07:26;;;;;;;6.80;1.40;;;14.60;99.90;;;;;;5011220;28;20280;-76
2022/07/10 02:10:10;;;;;;;5.60;1.60;;;14.60;99.90;;;;;;5009109;28;20226;-77
2022/07/10 02:12:55;;;;;;;2.30;0.90;;;14.60;99.90;;;;;;5007344;28;20187;-77
2022/07/10 02:15:42;;;;;;;5.40;1.30;;;14.60;99.90;;;;;;5009046;28;20219;-77
2022/07/10 02:18:27;;;;;;;6.77;1.00;;;14.60;99.90;;;;;;5009276;28;20195;-81
2022/07/10 02:21:11;;;;;;;4.27;1.10;;;14.60;99.90;;;;;;5011486;28;20231;-76
2022/07/10 02:23:55;;;;;;;7.07;1.07;;;14.50;99.90;;;;;;5010114;28;20187;-76
2022/07/10 02:26:39;;;;;;;5.40;1.13;;;14.50;99.90;;;;;;5008997;28;20215;-77
2022/07/10 02:29:24;;;;;;;4.27;0.80;;;14.50;99.90;;;;;;5009386;28;20250;-77
2022/07/10 02:32:08;;;;;;;4.50;0.90;;;14.50;99.90;;;;;;5010514;28;20241;-77
2022/07/10 02:34:53;;;;;;;2.33;0.70;;;14.50;99.90;;;;;;5011398;28;20295;-75
2022/07/10 02:37:37;;;;;;;3.40;0.90;;;14.40;99.90;;;;;;5006940;28;20199;-76
2022/07/10 02:40:21;;;;;;;8.00;1.07;;;14.40;99.90;;;;;;5009301;28;20225;-76
2022/07/10 02:43:05;;;;;;;3.27;0.90;;;14.40;99.90;;;;;;5007183;28;20191;-76
2022/07/10 02:45:49;;;;;;;4.67;0.80;;;14.40;99.90;;;;;;5010174;28;20227;-76
2022/07/10 02:48:33;;;;;;;3.27;0.53;;;14.30;99.90;;;;;;5022635;28;20207;-77
2022/07/10 02:51:17;;;;;;;3.43;0.87;;;14.20;99.90;;;;;;5010564;28;20249;-77
2022/07/10 02:54:02;;;;;;;5.07;0.70;;;14.20;99.90;;;;;;5007167;28;20199;-78
2022/07/10 02:56:46;;;;;;;1.87;0.70;;;14.20;99.90;;;;;;5022478;28;20222;-77
2022/07/10 02:59:30;;;;;;;2.83;0.93;;;14.10;99.90;;;;;;5009734;28;20230;-76
2022/07/10 03:02:14;;;;;;;3.80;0.90;;;14.10;99.90;;;;;;5023007;28;20250;-76
2022/07/10 03:04:59;;;;;;;4.73;1.60;;;14.10;99.90;;;;;;5023390;28;20252;-76
2022/07/10 03:07:43;;;;;;;4.50;1.00;;;14.10;99.90;;;;;;5010269;28;20187;-76
2022/07/10 03:10:27;;;;;;;2.00;0.67;;;14.10;99.90;;;;;;5007945;28;20188;-77
2022/07/10 03:13:11;;;;;;;3.70;1.00;;;14.10;99.90;;;;;;5005940;28;20179;-76
2022/07/10 03:15:55;;;;;;;3.63;0.90;;;14.20;99.90;;;;;;5007864;28;20227;-76
2022/07/10 03:18:39;;;;;;;2.93;0.70;;;14.20;99.90;;;;;;5024010;28;20206;-76
2022/07/10 03:21:24;;;;;;;5.80;1.00;;;14.20;99.90;;;;;;5003858;28;20188;-77
2022/07/10 03:24:08;;;;;;;3.50;0.67;;;14.20;99.90;;;;;;5022993;28;20257;-77
2022/07/10 03:26:52;;;;;;;2.73;0.77;;;14.20;99.90;;;;;;5004080;28;20258;-76
2022/07/10 03:29:36;;;;;;;4.97;1.10;;;14.20;99.90;;;;;;5023563;28;20226;-76
2022/07/10 03:32:20;;;;;;;3.10;0.80;;;14.30;99.90;;;;;;5020588;28;20210;-76
2022/07/10 03:35:04;;;;;;;4.60;1.00;;;14.20;99.90;;;;;;5006199;28;20216;-75
2022/07/10 03:37:48;;;;;;;2.87;0.80;;;14.20;99.90;;;;;;5008808;28;20199;-74
2022/07/10 03:40:33;;;;;;;8.53;1.00;;;14.20;99.90;;;;;;5023975;28;20226;-74
2022/07/10 03:43:17;;;;;;;6.43;1.63;;;14.20;99.90;;;;;;5022428;28;20712;-74
2022/07/10 03:46:01;;;;;;;6.13;0.90;;;14.20;99.90;;;;;;5022794;28;20219;-75
2022/07/10 03:48:45;;;;;;;3.30;1.00;;;14.20;99.90;;;;;;5022124;28;20191;-75
2022/07/10 03:51:30;;;;;;;5.53;1.10;;;14.20;99.90;;;;;;5023773;28;20694;-74
2022/07/10 03:54:14;;;;;;;5.40;0.80;;;14.20;99.90;;;;;;5008634;28;20237;-74
2022/07/10 04:00:02;;;;;;;7.87;0.90;;;14.20;99.90;;;;;;5021734;28;20217;-74
2022/07/10 04:02:46;;;;;;;3.73;0.93;;;14.20;99.90;;;;;;5003556;28;20234;-74
2022/07/10 04:05:31;;;;;;;5.53;0.90;;;14.20;99.90;;;;;;5001936;28;20281;-74
2022/07/10 04:08:15;;;;;;;4.67;1.10;;;14.20;99.90;;;;;;5003907;28;20207;-74
2022/07/10 04:10:59;;;;;;;1.67;0.90;;;14.20;99.90;;;;;;5016146;28;20226;-74
2022/07/10 04:13:43;;;;;;;4.43;0.93;;;14.20;99.90;;;;;;5005209;28;20181;-74
2022/07/10 04:16:28;;;;;;;5.57;1.00;;;14.20;99.90;;;;;;5019314;28;20216;-74
2022/07/10 04:19:12;;;;;;;5.30;0.80;;;14.20;99.90;;;;;;5008953;28;20281;-74
2022/07/10 04:21:56;;;;;;;4.70;0.80;;;14.20;99.90;;;;;;5006613;28;20192;-74
2022/07/10 04:24:40;;;;;;;3.83;0.90;;;14.20;99.90;;;;;;5005156;28;20255;-74
2022/07/10 04:27:24;;;;;;;4.47;1.00;;;14.20;99.90;;;;;;5020186;28;20183;-74
2022/07/10 04:30:09;;;;;;;4.53;1.13;;;14.30;99.90;;;;;;5005907;28;20196;-74
2022/07/10 04:32:53;;;;;;;6.70;1.10;;;14.30;99.90;;;;;;5009665;28;20206;-74
2022/07/10 04:35:38;;;;;;;4.37;1.17;;;14.30;99.90;;;;;;5011699;28;20638;-73
2022/07/10 04:38:22;;;;;;;2.87;1.00;;;14.30;99.90;;;;;;5014078;28;20698;-75
2022/07/10 04:41:06;;;;;;;5.50;0.90;;;14.30;99.90;;;;;;5023741;28;20403;-75
2022/07/10 04:43:50;;;;;;;3.03;0.90;;;14.40;99.90;;;;;;5022226;28;20549;-75
2022/07/10 04:46:34;;;;;;;5.40;1.63;;;14.30;99.90;;;;;;5022364;28;20711;-75
2022/07/10 04:49:18;;;;;;;6.27;1.27;;;14.40;99.90;;;;;;5024774;28;20183;-75
2022/07/10 04:52:02;;;;;;;5.47;0.97;;;14.40;99.90;;;;;;5010516;28;20199;-75
2022/07/10 04:54:46;;;;;;;5.97;1.30;;;14.50;99.90;;;;;;5012242;28;20265;-75
2022/07/10 04:57:30;;;;;;;3.27;1.10;;;14.50;99.90;;;;;;5025805;28;20230;-75
2022/07/10 05:00:15;;;;;;;6.57;0.90;;;14.50;99.90;;;;;;5007234;28;20226;-75
2022/07/10 05:02:59;;;;;;;5.63;1.20;;;14.50;99.90;;;;;;5012743;28;20265;-75
2022/07/10 05:05:43;;;;;;;4.03;1.10;;;14.60;99.90;;;;;;5007157;28;20227;-75
2022/07/10 05:08:27;;;;;;;13.97;1.47;;;14.50;99.90;;;;;;5005655;28;20207;-76
2022/07/10 05:11:11;;;;;;;4.63;0.90;;;14.50;99.90;;;;;;5022156;28;20242;-75
2022/07/10 05:13:56;;;;;;;7.47;1.40;;;14.60;99.90;;;;;;5006986;28;20230;-75
2022/07/10 05:16:40;;;;;;;5.97;1.43;;;14.60;99.90;;;;;;5023795;28;20203;-75
2022/07/10 05:19:24;;;;;;;4.53;0.90;;;14.70;99.90;;;;;;5005479;28;20187;-76
2022/07/10 05:22:09;;;;;;;7.37;1.60;;;14.80;99.90;;;;;;5023870;28;20195;-75
2022/07/10 05:24:53;;;;;;;8.87;1.73;;;14.80;99.90;;;;;;5005887;28;20305;-76
2022/07/10 05:27:37;;;;;;;10.20;1.53;;;14.80;99.90;;;;;;5025550;28;20195;-76
2022/07/10 05:30:21;;;;;;;6.30;1.50;;;14.70;99.90;;;;;;5009484;28;20326;-75
2022/07/10 05:33:05;;;;;;;4.20;1.20;;;14.70;99.90;;;;;;5022635;28;20222;-75
2022/07/10 05:35:49;;;;;;;7.53;1.37;;;14.70;99.90;;;;;;5009769;28;20254;-74
2022/07/10 05:38:33;;;;;;;7.00;1.07;;;14.70;99.90;;;;;;5006169;28;20322;-75
2022/07/10 05:41:17;;;;;;;4.17;1.30;;;14.70;99.90;;;;;;5022455;28;20195;-75
2022/07/10 05:44:02;;;;;;;6.90;1.00;;;14.80;99.90;;;;;;5007264;28;20552;-75
2022/07/10 05:46:46;;;;;;;5.13;1.43;;;14.80;99.90;;;;;;5005855;28;20211;-75
2022/07/10 05:49:32;;;;;;;5.43;1.30;;;14.70;99.90;;;;;;5022917;28;20227;-75
2022/07/10 05:52:16;;;;;;;7.90;2.40;;;14.80;99.90;;;;;;5008540;28;20273;-75
2022/07/10 05:55:00;;;;;;;3.93;1.00;;;14.80;99.90;;;;;;5024357;28;20250;-75
2022/07/10 05:57:44;;;;;;;3.27;1.07;;;14.70;99.90;;;;;;5007350;28;20190;-76
2022/07/10 06:00:28;;;;;;;5.80;1.23;;;14.70;99.90;;;;;;5008597;28;20198;-76
2022/07/10 06:03:12;;;;;;;6.93;1.30;;;14.70;99.90;;;;;;5009156;28;20313;-76
2022/07/10 06:05:58;;;;;;;8.70;1.20;;;14.60;99.90;;;;;;5019895;28;20234;-75
2022/07/10 06:08:43;;;;;;;4.10;1.23;;;14.60;99.90;;;;;;5010013;28;20691;-76
2022/07/10 06:11:27;;;;;;;8.33;1.67;;;14.70;99.90;;;;;;5006963;28;20203;-76
2022/07/10 06:14:12;;;;;;;7.50;1.30;;;14.70;99.90;;;;;;5025874;28;20211;-76
2022/07/10 06:16:56;;;;;;;6.43;1.30;;;14.70;99.90;;;;;;5005312;28;20316;-76
2022/07/10 06:19:40;;;;;;;4.80;1.10;;;14.70;99.90;;;;;;5010699;28;20279;-76
2022/07/10 06:22:30;;;;;;;6.63;1.30;;;14.70;99.90;;;;;;5023434;28;20282;-77
2022/07/10 06:25:14;;;;;;;5.23;1.10;;;14.80;99.90;;;;;;5008566;28;20245;-75
2022/07/10 06:27:59;;;;;;;7.47;1.40;;;14.80;99.90;;;;;;5007973;28;20230;-76
2022/07/10 06:30:46;;;;;;;5.97;1.20;;;14.90;99.90;;;;;;5007663;28;20750;-76
2022/07/10 06:33:30;;;;;;;4.87;1.10;;;14.90;99.90;;;;;;5009429;28;20175;-75
2022/07/10 06:36:14;;;;;;;5.10;1.20;;;14.90;99.90;;;;;;5024258;28;20215;-75
2022/07/10 06:38:59;;;;;;;8.87;1.50;;;14.90;99.90;;;;;;5007276;28;20204;-74
2022/07/10 06:41:43;;;;;;;4.60;1.30;;;14.90;99.90;;;;;;5006813;28;20587;-75
2022/07/10 06:44:27;;;;;;;4.80;1.33;;;15.00;99.90;;;;;;5011534;28;20643;-75
2022/07/10 06:50:16;;;;;;;9.70;1.83;;;15.10;99.90;;;;;;5017662;28;20180;-75
2022/07/10 06:53:02;;;;;;;8.00;1.50;;;15.20;99.90;;;;;;5003357;28;20346;-75
2022/07/10 06:55:46;;;;;;;5.03;1.27;;;15.20;99.90;;;;;;5007542;28;20227;-76
2022/07/10 06:58:31;;;;;;;7.50;1.27;;;15.30;99.90;;;;;;5007193;28;20230;-75
2022/07/10 07:01:15;;;;;;;5.87;1.60;;;15.40;99.90;;;;;;5005675;28;20210;-76
2022/07/10 07:03:59;;;;;;;8.40;1.53;;;15.50;99.90;;;;;;5005554;28;20322;-75
2022/07/10 07:06:43;;;;;;;6.00;1.40;;;15.40;99.90;;;;;;5002332;28;20215;-75
2022/07/10 07:09:27;;;;;;;6.73;1.87;;;15.50;99.90;;;;;;5003667;28;20222;-75
2022/07/10 07:12:11;;;;;;;11.37;1.63;;;15.50;99.90;;;;;;5006053;28;20211;-76
2022/07/10 07:14:55;;;;;;;4.87;1.10;;;15.50;99.90;;;;;;5006698;28;20312;-76
2022/07/10 07:17:56;;;;;;;3.90;1.40;;;15.70;99.90;;;;;;5003973;28;20338;-75
2022/07/10 07:23:43;;;;;;;7.43;1.20;;;15.80;99.90;;;;;;5023637;28;20285;-75
2022/07/10 07:26:27;;;;;;;10.27;1.70;;;15.90;99.90;;;;;;5003559;28;20307;-79
2022/07/10 07:29:11;;;;;;;10.00;2.53;;;16.10;99.90;;;;;;5005162;28;20194;-75
2022/07/10 07:31:55;;;;;;;4.00;1.00;;;16.10;99.90;;;;;;5020715;28;20241;-75
2022/07/10 07:34:39;;;;;;;12.43;1.53;;;16.20;99.90;;;;;;5002195;28;20207;-76
2022/07/10 07:37:23;;;;;;;9.87;1.50;;;16.30;99.90;;;;;;5007432;28;20184;-75
2022/07/10 07:40:10;;;;;;;5.80;1.20;;;16.40;99.90;;;;;;5019264;28;20207;-75
2022/07/10 07:42:55;;;;;;;11.03;1.83;;;16.60;99.90;;;;;;5025251;28;20242;-76
2022/07/10 07:45:39;;;;;;;3.70;1.00;;;16.50;99.90;;;;;;5022459;28;20226;-75
2022/07/10 07:48:23;;;;;;;5.43;1.20;;;16.60;99.90;;;;;;5021781;28;20234;-75
2022/07/10 07:51:07;;;;;;;4.63;1.00;;;16.60;99.90;;;;;;5006967;28;20237;-75
2022/07/10 07:53:51;;;;;;;5.77;0.97;;;16.60;99.90;;;;;;5005543;28;20184;-75
2022/07/10 07:56:35;;;;;;;6.43;1.57;;;16.60;99.90;;;;;;5007121;28;20196;-75
2022/07/10 07:59:20;;;;;;;7.60;1.60;;;16.70;99.90;;;;;;5021111;28;20207;-75
2022/07/10 08:02:05;;;;;;;5.03;1.10;;;16.60;99.90;;;;;;5019949;28;20218;-76
2022/07/10 08:04:49;;;;;;;5.23;0.87;;;16.60;99.90;;;;;;5011091;28;20230;-75
2022/07/10 08:07:42;;;;;;;5.73;1.20;;;16.60;99.90;;;;;;5006374;28;20242;-76
2022/07/10 08:10:27;;;;;;;4.20;1.20;;;16.70;99.90;;;;;;5026168;28;20694;-76
2022/07/10 08:13:11;;;;;;;9.53;1.13;;;16.70;99.90;;;;;;5024684;28;20241;-76
2022/07/10 08:15:56;;;;;;;7.20;1.07;;;16.70;99.90;;;;;;5008127;28;20218;-76
2022/07/10 08:18:40;;;;;;;3.13;0.90;;;16.70;99.90;;;;;;5011809;28;20191;-75
2022/07/10 08:21:24;;;;;;;6.43;1.10;;;16.80;99.90;;;;;;5011708;28;20646;-76
2022/07/10 08:24:08;;;;;;;5.17;1.10;;;16.80;99.90;;;;;;5028645;28;20192;-75
2022/07/10 08:26:52;;;;;;;5.03;1.07;;;16.90;99.90;;;;;;5023710;28;20215;-76
2022/07/10 08:29:36;;;;;;;3.60;0.90;;;17.00;99.90;;;;;;5011559;28;20223;-76
2022/07/10 08:32:20;;;;;;;2.67;0.97;;;17.00;99.90;;;;;;5023965;28;20183;-77
2022/07/10 08:35:05;;;;;;;7.43;1.10;;;17.10;99.90;;;;;;5009839;28;20299;-76
2022/07/10 08:37:49;;;;;;;5.37;1.33;;;17.20;99.90;;;;;;5007124;28;20195;-76
2022/07/10 08:40:36;;;;;;;6.23;1.60;;;17.30;99.90;;;;;;5010977;28;20195;-76
2022/07/10 08:43:20;;;;;;;3.70;0.90;;;17.30;99.90;;;;;;5007164;28;20250;-77
2022/07/10 08:46:05;;;;;;;5.30;1.37;;;17.30;99.90;;;;;;5024841;28;20226;-75
2022/07/10 08:48:54;;;;;;;3.27;1.03;;;17.30;99.90;;;;;;5009794;28;20187;-76
2022/07/10 08:51:42;;;;;;;8.90;1.30;;;17.30;99.90;;;;;;5009264;28;20191;-77
2022/07/10 08:54:30;;;;;;;4.17;1.17;;;17.30;99.90;;;;;;5009515;28;20206;-75
2022/07/10 08:57:17;;;;;;;5.80;1.37;;;17.30;99.90;;;;;;5027082;28;20179;-74
2022/07/10 09:00:02;;;;;;;9.27;1.53;;;17.30;99.90;;;;;;5008705;28;20187;-74
2022/07/10 09:02:46;;;;;;;7.60;1.37;;;17.40;99.90;;;;;;5021984;28;20199;-74
2022/07/10 09:05:30;;;;;;;6.23;1.43;;;17.30;99.90;;;;;;5024424;28;20250;-74
2022/07/10 09:08:30;;;;;;;6.40;1.53;;;17.20;99.90;;;;;;5008556;28;20230;-74
2022/07/10 09:11:18;;;;;;;4.67;1.27;;;17.10;99.90;;;;;;5004029;28;20258;-76
2022/07/10 09:14:04;;;;;;;8.10;1.20;;;17.00;99.90;;;;;;5022790;28;20257;-75
2022/07/10 09:16:50;;;;;;;6.53;1.30;;;16.90;99.90;;;;;;5023170;28;20203;-75
2022/07/10 09:19:34;;;;;;;5.97;1.33;;;16.80;99.90;;;;;;5025181;28;20191;-75
2022/07/10 09:22:22;;;;;;;3.93;1.20;;;16.80;99.90;;;;;;5021932;28;20262;-75
2022/07/10 09:25:12;;;;;;;4.80;1.20;;;16.90;99.90;;;;;;5008388;28;20282;-75
2022/07/10 09:27:59;;;;;;;4.20;0.97;;;16.90;99.90;;;;;;5006597;28;20215;-74
2022/07/10 09:30:44;;;;;;;3.90;1.30;;;16.90;99.90;;;;;;5007401;28;20187;-75
2022/07/10 09:33:30;;;;;;;5.50;1.50;;;16.90;99.90;;;;;;5008234;28;20200;-75
2022/07/10 09:36:16;;;;;;;8.40;1.37;;;16.90;99.90;;;;;;5006176;28;20211;-75
2022/07/10 09:39:00;;;;;;;7.97;1.60;;;16.80;99.90;;;;;;5009519;28;20245;-75
2022/07/10 09:41:44;;;;;;;4.97;1.23;;;16.80;99.90;;;;;;5010244;28;20234;-74
2022/07/10 09:44:28;;;;;;;6.33;1.50;;;16.80;99.90;;;;;;5025030;28;20246;-75
2022/07/10 09:47:24;;;;;;;5.50;0.90;;;16.80;99.90;;;;;;5006313;28;20583;-75
2022/07/10 09:50:24;;;;;;;4.40;1.10;;;16.70;99.90;;;;;;5006080;28;20212;-74
2022/07/10 09:53:12;;;;;;;4.03;1.33;;;16.70;99.90;;;;;;5005561;28;20242;-74
2022/07/10 09:55:58;;;;;;;2.20;1.00;;;16.70;99.90;;;;;;5006849;28;20219;-77
2022/07/10 09:58:45;;;;;;;4.93;1.10;;;16.70;99.90;;;;;;5006236;28;20666;-75
2022/07/10 10:01:30;;;;;;;7.97;1.17;;;16.70;99.90;;;;;;5010397;28;20188;-75
2022/07/10 10:04:16;;;;;;;5.17;1.27;;;16.80;99.90;;;;;;5009715;28;20307;-75
2022/07/10 10:07:02;;;;;;;3.07;1.27;;;16.80;99.90;;;;;;5004054;28;20258;-75
2022/07/10 10:09:53;;;;;;;5.87;1.00;;;16.90;99.90;;;;;;5023272;28;20267;-75
2022/07/10 10:12:49;;;;;;;5.30;1.20;;;16.90;99.90;;;;;;5019236;28;20230;-75
2022/07/10 10:15:34;;;;;;;7.13;1.50;;;17.00;99.90;;;;;;5006344;28;20219;-76
2022/07/10 10:18:20;;;;;;;4.87;0.90;;;17.00;99.90;;;;;;5000156;28;20204;-77
2022/07/10 10:21:07;;;;;;;5.50;1.20;;;17.00;99.90;;;;;;4996882;28;20242;-76
2022/07/10 10:23:54;;;;;;;5.33;1.37;;;17.00;99.90;;;;;;4998208;28;20288;-76
2022/07/10 10:26:38;;;;;;;2.97;1.20;;;17.00;99.90;;;;;;5004562;28;20219;-76
2022/07/10 10:29:22;;;;;;;6.10;1.63;;;17.10;99.90;;;;;;4999382;28;20187;-76
2022/07/10 10:32:08;;;;;;;5.30;1.20;;;17.10;99.90;;;;;;5005023;28;20192;-76
2022/07/10 10:34:59;;;;;;;6.33;1.27;;;17.20;99.90;;;;;;5004048;28;20354;-75
2022/07/10 10:37:49;;;;;;;4.60;0.87;;;17.10;99.90;;;;;;5005409;28;20246;-75
2022/07/10 10:40:34;;;;;;;3.10;0.80;;;17.10;99.90;;;;;;5005767;28;20674;-77
2022/07/10 10:43:25;;;;;;;5.80;1.00;;;17.20;99.90;;;;;;5006662;28;20720;-75
2022/07/10 10:46:23;;;;;;;7.63;1.17;;;17.20;99.90;;;;;;5007410;28;20301;-76
2022/07/10 10:49:08;;;;;;;3.17;1.07;;;17.30;99.90;;;;;;5006364;28;20291;-76
2022/07/10 10:51:56;;;;;;;5.93;0.87;;;17.40;99.90;;;;;;5006624;28;20242;-77
2022/07/10 10:55:01;;;;;;;4.00;1.00;;;17.50;99.90;;;;;;5006481;28;20219;-76
2022/07/10 10:57:47;;;;;;;4.03;1.07;;;17.60;99.90;;;;;;5021252;28;20775;-76
2022/07/10 11:00:37;;;;;;;2.87;0.83;;;17.70;99.90;;;;;;5022070;28;20222;-76
2022/07/10 11:03:24;;;;;;;3.63;1.37;;;17.80;99.90;;;;;;5022083;28;20186;-76
2022/07/10 11:06:13;;;;;;;3.93;1.00;;;17.90;99.90;;;;;;5004966;28;20238;-77
2022/07/10 11:09:00;;;;;;;5.57;1.03;;;18.00;99.90;;;;;;5008855;28;20199;-76
2022/07/10 11:11:56;;;;;;;10.50;2.70;;;18.00;99.90;;;;;;5006484;28;20245;-76
2022/07/10 11:14:46;;;;;;;2.73;0.73;;;18.10;99.90;;;;;;5005478;28;20262;-76
2022/07/10 11:17:32;;;;;;;4.63;1.00;;;18.10;99.90;;;;;;5003700;28;20619;-76
2022/07/10 11:20:16;;;;;;;5.20;0.90;;;18.20;99.90;;;;;;5006080;28;20195;-75
2022/07/10 11:23:07;;;;;;;6.47;1.10;;;18.20;99.90;;;;;;5009869;28;20183;-76
2022/07/10 11:26:07;;;;;;;7.93;1.03;;;18.30;99.90;;;;;;5008096;28;20254;-76
2022/07/10 11:28:56;;;;;;;4.27;1.03;;;18.30;99.90;;;;;;5006622;28;20191;-75
2022/07/10 11:31:44;;;;;;;6.47;1.23;;;18.20;99.90;;;;;;5005631;28;20203;-76
2022/07/10 11:34:36;;;;;;;4.93;0.87;;;18.10;99.90;;;;;;5003552;28;20207;-76
2022/07/10 11:37:20;;;;;;;3.57;1.20;;;18.10;99.90;;;;;;5009442;28;20191;-76
2022/07/10 11:40:12;;;;;;;4.20;1.20;;;18.00;99.90;;;;;;5008894;28;20191;-75
2022/07/10 11:42:58;;;;;;;6.35;0.95;;;18.00;99.90;;;;;;5027934;28;20190;-76
2022/07/10 11:45:43;;;;;;;4.10;0.90;;;18.00;99.90;;;;;;5012338;28;20229;-75
2022/07/10 11:48:27;;;;;;;1.70;1.00;;;18.00;99.90;;;;;;5028704;28;20202;-76
2022/07/10 11:51:20;;;;;;;6.20;1.37;;;18.00;99.90;;;;;;5011423;28;20569;-76
2022/07/10 11:54:13;;;;;;;6.17;1.27;;;18.00;99.90;;;;;;5024564;28;20199;-76
2022/07/10 11:57:06;;;;;;;2.83;0.90;;;18.00;99.90;;;;;;5023448;28;20194;-76
2022/07/10 11:59:50;;;;;;;2.63;0.90;;;18.10;99.90;;;;;;5024827;28;20195;-76
2022/07/10 12:02:34;;;;;;;5.20;0.87;;;18.10;99.90;;;;;;5028058;28;20215;-75
2022/07/10 12:05:38;;;;;;;7.53;0.90;;;18.10;99.90;;;;;;5012257;28;20258;-75
2022/07/10 12:08:23;;;;;;;4.33;0.80;;;18.10;99.90;;;;;;5011089;28;20207;-76
2022/07/10 12:11:14;;;;;;;7.17;1.10;;;18.10;99.90;;;;;;5024329;28;20195;-76
2022/07/10 12:14:09;;;;;;;3.93;1.00;;;18.20;99.90;;;;;;5011277;28;20194;-76
2022/07/10 12:16:55;;;;;;;3.97;0.83;;;18.30;99.90;;;;;;5025108;28;20203;-76
2022/07/10 12:19:39;;;;;;;3.70;0.90;;;18.20;99.90;;;;;;5012328;28;20211;-76
2022/07/10 12:22:23;;;;;;;6.03;1.10;;;18.10;99.90;;;;;;5009265;28;20334;-76
2022/07/10 12:25:09;;;;;;;3.87;0.90;;;18.20;99.90;;;;;;5009802;28;20219;-76
2022/07/10 12:28:00;;;;;;;3.17;1.07;;;18.10;99.90;;;;;;5008488;28;20235;-76
2022/07/10 12:30:49;;;;;;;2.37;1.10;;;18.20;99.90;;;;;;5011716;28;20184;-76
2022/07/10 12:33:33;;;;;;;2.07;0.80;;;18.30;99.90;;;;;;5027237;28;20270;-76
2022/07/10 12:36:17;;;;;;;3.97;0.80;;;18.40;99.90;;;;;;5013796;28;20300;-76
2022/07/10 12:39:01;;;;;;;4.30;0.90;;;18.50;99.90;;;;;;5013709;28;20195;-76
2022/07/10 12:42:03;;;;;;;4.03;0.82;;;18.50;99.90;;;;;;5011539;28;20244;-76
2022/07/10 12:44:48;;;;;;;1.70;0.52;;;18.50;99.90;;;;;;5016479;28;20211;-75
2022/07/10 12:47:47;;;;;;;2.77;0.83;;;18.50;99.90;;;;;;5029919;28;20233;-76
2022/07/10 12:50:31;;;;;;;2.57;0.90;;;18.40;99.90;;;;;;5009274;28;20235;-76
2022/07/10 12:53:15;;;;;;;1.73;0.80;;;18.50;99.90;;;;;;5009839;28;20278;-76
2022/07/10 12:55:59;;;;;;;3.07;0.83;;;18.40;99.90;;;;;;5006151;28;20302;-76
2022/07/10 12:58:45;;;;;;;2.67;0.80;;;18.40;99.90;;;;;;5011753;28;20686;-76
2022/07/10 13:01:42;;;;;;;2.30;0.63;;;18.30;99.90;;;;;;5022252;28;20184;-76
2022/07/10 13:04:26;;;;;;;4.63;0.80;;;18.30;99.90;;;;;;5024678;28;20179;-76
2022/07/10 13:07:14;;;;;;;4.10;0.93;;;18.10;99.90;;;;;;5019361;28;20915;-76
2022/07/10 13:10:04;;;;;;;2.80;0.97;;;18.00;99.90;;;;;;5007026;28;20203;-76
2022/07/10 13:12:48;;;;;;;2.47;0.80;;;17.90;99.90;;;;;;5024750;28;20183;-76
2022/07/10 13:15:40;;;;;;;2.63;0.70;;;17.90;99.90;;;;;;5010131;28;20322;-76
2022/07/10 13:18:26;;;;;;;4.10;0.73;;;17.80;99.90;;;;;;5010629;28;20286;-75
2022/07/10 13:21:11;;;;;;;6.77;0.80;;;17.90;99.90;;;;;;5008236;28;20254;-76
2022/07/10 13:23:56;;;;;;;0.63;0.60;;;17.90;99.90;;;;;;5005027;28;20223;-76
2022/07/10 13:26:40;;;;;;;1.50;0.50;;;17.90;99.90;;;;;;5010122;28;20226;-76
2022/07/10 13:29:24;;;;;;;1.90;0.73;;;18.00;99.90;;;;;;5004758;28;20231;-74
2022/07/10 13:32:08;;;;;;;2.10;0.53;;;18.10;99.90;;;;;;5010123;28;20187;-75
2022/07/10 13:34:52;;;;;;;2.37;0.70;;;18.30;99.90;;;;;;5022934;28;20223;-76
2022/07/10 13:37:36;;;;;;;3.27;0.67;;;18.40;99.90;;;;;;5008024;28;20299;-75
2022/07/10 13:40:20;;;;;;;1.02;0.40;;;18.50;99.90;;;;;;5026081;28;20245;-75
2022/07/10 13:43:05;;;;;;;0.57;0.30;;;18.60;99.90;;;;;;5007954;28;20682;-76
2022/07/10 13:45:49;;;;;;;2.23;0.40;;;18.60;99.90;;;;;;5009928;28;20218;-76
2022/07/10 13:48:35;;;;;;;3.35;0.50;;;18.70;99.90;;;;;;5023391;28;20191;-75
2022/07/10 13:51:19;;;;;;;2.67;0.40;;;18.60;99.90;;;;;;5009308;28;20183;-75
2022/07/10 13:54:03;;;;;;;1.27;0.50;;;18.70;99.90;;;;;;5008068;28;20195;-76
2022/07/10 13:56:48;;;;;;;0.98;0.60;;;18.70;99.90;;;;;;5006031;28;20218;-75
2022/07/10 13:59:32;;;;;;;2.20;0.40;;;18.80;99.90;;;;;;5008473;28;20231;-75
2022/07/10 14:02:16;;;;;;;1.95;0.68;;;18.80;99.90;;;;;;5006449;28;20199;-76
2022/07/10 14:05:00;;;;;;;2.07;0.53;;;18.90;99.90;;;;;;5008099;28;20282;-76
2022/07/10 14:07:44;;;;;;;2.37;0.40;;;18.90;99.90;;;;;;5024316;28;20191;-76
2022/07/10 14:10:29;;;;;;;1.45;0.45;;;18.90;99.90;;;;;;5024490;28;20196;-76
2022/07/10 14:13:13;;;;;;;1.27;0.47;;;19.00;99.90;;;;;;5023222;28;20179;-76
2022/07/10 14:15:57;;;;;;;1.60;0.40;;;19.00;99.90;;;;;;5006099;28;20223;-76
2022/07/10 14:18:41;;;;;;;3.05;0.40;;;19.00;99.90;;;;;;5007369;28;20187;-76
2022/07/10 14:21:27;;;;;;;1.25;0.40;;;19.00;99.90;;;;;;5022735;28;20246;-76
2022/07/10 14:24:11;;;;;;;2.75;0.52;;;19.00;99.90;;;;;;5006528;28;20238;-77
2022/07/10 14:26:55;;;;;;;3.30;0.70;;;18.90;99.90;;;;;;5008833;28;20210;-76
2022/07/10 14:29:39;;;;;;;3.22;0.50;;;18.90;99.90;;;;;;5004424;28;20211;-76